createdAt,value
2022-08-05T00:00:50.201Z,84.50
2022-08-05T00:06:04.601Z,85.40
2022-08-05T00:11:23.927Z,86.20
2022-08-05T00:16:35.880Z,90.80
2022-08-05T00:21:38.681Z,88.00
2022-08-05T00:26:52.015Z,89.40
2022-08-05T00:32:13.127Z,92.10
2022-08-05T00:37:16.754Z,90.40
2022-08-05T00:42:35.506Z,91.70
2022-08-05T00:47:57.062Z,91.40
2022-08-05T00:53:00.927Z,92.60
2022-08-05T00:58:04.751Z,90.80
2022-08-05T01:03:07.801Z,92.80
2022-08-05T01:08:40.661Z,91.30
2022-08-05T01:13:57.704Z,93.10
2022-08-05T01:19:36.694Z,91.40
2022-08-05T01:25:10.657Z,91.50
2022-08-05T01:30:19.044Z,90.50
2022-08-05T01:35:52.949Z,90.00
2022-08-05T01:40:49.376Z,90.80
2022-08-05T01:45:55.202Z,90.90
2022-08-05T01:51:00.062Z,90.80
2022-08-05T01:56:04.273Z,91.60
2022-08-05T02:01:07.079Z,91.40
2022-08-05T02:06:33.260Z,93.30
2022-08-05T02:11:53.164Z,93.10
2022-08-05T02:16:55.739Z,91.50
2022-08-05T02:22:09.984Z,92.90
2022-08-05T02:27:30.255Z,94.20
2022-08-05T02:32:51.648Z,93.80
2022-08-05T02:37:54.443Z,94.80
2022-08-05T02:43:01.346Z,94.50
2022-08-05T02:48:11.688Z,95.10
2022-08-05T02:53:19.229Z,94.00
2022-08-05T02:58:22.646Z,94.70
2022-08-05T03:03:33.889Z,95.10
2022-08-05T03:08:52.425Z,96.60
2022-08-05T03:14:02.742Z,94.50
2022-08-05T03:19:12.937Z,96.60
2022-08-05T03:24:29.463Z,96.70
2022-08-05T03:29:45.501Z,97.20
2022-08-05T03:34:54.337Z,96.60
2022-08-05T03:40:01.570Z,98.70
2022-08-05T03:45:04.810Z,99.00
2022-08-05T03:50:24.345Z,97.90
2022-08-05T03:56:05.845Z,95.50
2022-08-05T04:00:56.341Z,98.60
2022-08-05T04:05:59.281Z,97.80
2022-08-05T04:11:02.979Z,98.50
2022-08-05T04:16:05.328Z,95.60
2022-08-05T04:21:07.601Z,99.70
2022-08-05T04:26:17.365Z,96.90
2022-08-05T04:31:20.369Z,96.80
2022-08-05T04:36:45.674Z,99.00
2022-08-05T04:41:44.402Z,97.90
2022-08-05T04:46:48.554Z,97.60
2022-08-05T04:51:50.540Z,99.50
2022-08-05T04:57:02.566Z,96.70
2022-08-05T05:02:07.607Z,97.20
2022-08-05T05:07:29.794Z,97.40
2022-08-05T05:12:33.920Z,95.20
2022-08-05T05:17:55.853Z,92.90
2022-08-05T05:23:08.087Z,93.30
2022-08-05T05:28:11.407Z,93.20
2022-08-05T05:33:17.010Z,92.50
2022-08-05T05:38:26.923Z,91.20
2022-08-05T05:43:56.721Z,91.20
2022-08-05T05:48:51.296Z,87.10
2022-08-05T05:53:58.572Z,86.40
2022-08-05T05:59:06.376Z,83.40
2022-08-05T06:04:12.739Z,81.00
2022-08-05T06:09:17.094Z,76.60
2022-08-05T06:14:20.381Z,74.30
2022-08-05T06:19:33.923Z,69.80
2022-08-05T06:24:41.890Z,70.20
2022-08-05T06:30:04.290Z,67.90
2022-08-05T06:35:15.442Z,66.00
2022-08-05T06:40:27.994Z,65.00
2022-08-05T06:45:44.934Z,65.30
2022-08-05T06:50:57.455Z,63.00
2022-08-05T06:56:00.529Z,61.70
2022-08-05T07:01:03.155Z,60.00
2022-08-05T07:06:14.249Z,61.20
2022-08-05T07:11:17.343Z,59.90
2022-08-05T07:17:58.597Z,58.70
2022-08-05T07:22:05.190Z,59.90
2022-08-05T07:27:12.870Z,57.30
2022-08-05T07:32:16.358Z,58.70
2022-08-05T07:37:18.194Z,58.80
2022-08-05T07:42:34.046Z,57.20
2022-08-05T07:47:42.562Z,56.60
2022-08-05T07:52:44.673Z,55.90
2022-08-05T07:58:02.438Z,55.40
2022-08-05T08:03:15.124Z,54.00
2022-08-05T08:08:19.793Z,54.90
2022-08-05T08:13:29.320Z,53.80
2022-08-05T08:18:31.552Z,53.80
2022-08-05T08:24:02.399Z,53.20
2022-08-05T08:29:02.379Z,51.60
2022-08-05T08:34:18.728Z,52.20
2022-08-05T08:39:31.969Z,51.90
2022-08-05T08:45:23.562Z,51.90
2022-08-05T08:50:06.049Z,51.50
2022-08-05T08:56:02.703Z,51.60
2022-08-05T09:00:48.593Z,51.80
2022-08-05T09:06:08.855Z,51.40
2022-08-05T09:11:13.819Z,50.80
2022-08-05T09:16:16.919Z,50.70
2022-08-05T09:22:23.073Z,50.10
2022-08-05T09:26:51.832Z,49.00
2022-08-05T09:32:46.024Z,50.70
2022-08-05T09:38:16.564Z,49.70
2022-08-05T09:42:49.697Z,48.60
2022-08-05T09:47:56.758Z,49.40
2022-08-05T09:52:59.424Z,50.20
2022-08-05T09:58:13.140Z,47.80
2022-08-05T10:03:14.999Z,48.80
2022-08-05T10:08:37.580Z,48.60
2022-08-05T10:13:45.754Z,47.30
2022-08-05T10:18:50.662Z,47.80
2022-08-05T10:23:59.748Z,48.20
2022-08-05T10:29:02.625Z,46.80
2022-08-05T10:34:07.872Z,47.00
2022-08-05T10:39:25.084Z,47.70
2022-08-05T10:44:45.747Z,47.20
2022-08-05T10:50:35.420Z,47.60
2022-08-05T10:56:14.926Z,45.90
2022-08-05T11:01:55.384Z,47.10
2022-08-05T11:07:06.799Z,46.70
2022-08-05T11:12:45.330Z,45.30
2022-08-05T11:17:57.544Z,46.90
2022-08-05T11:23:33.558Z,46.70
2022-08-05T11:28:52.638Z,46.60
2022-08-05T11:33:56.786Z,47.80
2022-08-05T11:39:00.638Z,47.20
2022-08-05T11:44:21.574Z,46.50
2022-08-05T11:49:34.951Z,46.50
2022-08-05T11:54:38.251Z,45.40
2022-08-05T11:59:49.719Z,46.00
2022-08-05T12:04:59.195Z,47.00
2022-08-05T12:10:09.141Z,46.10
2022-08-05T12:15:38.339Z,46.80
2022-08-05T12:20:41.332Z,46.80
2022-08-05T12:25:56.415Z,46.60
2022-08-05T12:31:02.263Z,44.60
2022-08-05T12:36:08.177Z,44.40
2022-08-05T12:41:13.916Z,44.20
2022-08-05T12:46:29.473Z,45.00
2022-08-05T12:52:13.513Z,44.00
2022-08-05T12:57:09.220Z,44.00
2022-08-05T13:02:13.209Z,43.80
2022-08-05T13:07:56.194Z,44.50
2022-08-05T13:12:51.308Z,43.60
2022-08-05T13:18:01.075Z,42.30
2022-08-05T13:23:07.209Z,42.10
2022-08-05T13:28:10.596Z,41.80
2022-08-05T13:33:14.425Z,41.70
2022-08-05T13:38:36.329Z,42.50
2022-08-05T13:43:54.520Z,44.00
2022-08-05T13:49:00.959Z,44.10
2022-08-05T13:54:03.247Z,43.20
2022-08-05T13:59:20.061Z,43.40
2022-08-05T14:04:41.726Z,44.10
2022-08-05T14:09:46.397Z,44.00
2022-08-05T14:14:48.788Z,44.70
2022-08-05T14:19:56.919Z,44.10
2022-08-05T14:25:06.140Z,43.30
2022-08-05T14:30:20.478Z,44.10
2022-08-05T14:35:23.590Z,43.60
2022-08-05T14:40:39.442Z,42.80
2022-08-05T14:45:45.791Z,44.30
2022-08-05T14:50:47.779Z,43.80
2022-08-05T14:55:52.631Z,42.70
2022-08-05T15:00:58.238Z,42.50
2022-08-05T15:06:07.453Z,42.90
2022-08-05T15:11:15.282Z,42.70
2022-08-05T15:16:17.983Z,44.30
2022-08-05T15:21:21.146Z,45.30
2022-08-05T15:26:32.001Z,43.90
2022-08-05T15:31:34.877Z,45.60
2022-08-05T15:36:36.970Z,46.00
2022-08-05T15:41:57.267Z,44.90
2022-08-05T15:47:01.607Z,45.10
2022-08-05T15:52:14.235Z,46.10
2022-08-05T15:57:25.983Z,45.80
2022-08-05T16:02:35.362Z,45.70
2022-08-05T16:07:37.275Z,45.50
2022-08-05T16:12:39.154Z,45.40
2022-08-05T16:17:41.123Z,47.60
2022-08-05T16:22:43.005Z,48.50
2022-08-05T16:28:00.040Z,49.30
2022-08-05T16:33:06.786Z,50.20
2022-08-05T16:38:24.728Z,51.60
2022-08-05T16:43:30.376Z,51.40
2022-08-05T16:48:33.786Z,53.50
2022-08-05T16:54:03.247Z,53.50
2022-08-05T16:59:07.563Z,54.10
2022-08-05T17:04:10.426Z,54.90
2022-08-05T17:09:12.285Z,54.70
2022-08-05T17:14:22.307Z,56.00
2022-08-05T17:19:37.973Z,55.40
2022-08-05T17:24:45.396Z,56.80
2022-08-05T17:29:59.727Z,57.70
2022-08-05T17:35:02.968Z,57.90
2022-08-05T17:40:10.625Z,59.20
2022-08-05T17:45:20.074Z,62.30
2022-08-05T17:50:30.300Z,62.20
2022-08-05T17:55:38.022Z,64.40
2022-08-05T18:00:45.456Z,65.80
2022-08-05T18:05:53.420Z,65.30
2022-08-05T18:10:56.087Z,64.60
2022-08-05T18:15:59.111Z,64.40
2022-08-05T18:21:01.682Z,64.50
2022-08-05T18:26:04.217Z,65.30
2022-08-05T18:31:07.394Z,65.50
2022-08-05T18:36:15.166Z,66.20
2022-08-05T18:41:56.736Z,68.90
2022-08-05T18:46:41.129Z,69.80
2022-08-05T18:52:08.797Z,71.90
2022-08-05T18:57:15.414Z,72.90
2022-08-05T19:02:28.226Z,72.60
2022-08-05T19:07:45.556Z,72.80
2022-08-05T19:12:49.086Z,74.90
2022-08-05T19:18:09.739Z,76.00
2022-08-05T19:24:03.773Z,77.10
2022-08-05T19:28:35.011Z,78.50
2022-08-05T19:33:38.108Z,79.50
2022-08-05T19:38:43.827Z,80.30
2022-08-05T19:44:04.159Z,79.70
2022-08-05T19:49:07.912Z,78.40
2022-08-05T19:54:27.209Z,81.20
2022-08-05T19:59:55.053Z,81.60
2022-08-05T20:04:58.705Z,86.70
2022-08-05T20:10:01.113Z,85.10
2022-08-05T20:15:03.120Z,82.80
2022-08-05T20:20:09.517Z,85.30
2022-08-05T20:25:13.342Z,86.40
2022-08-05T20:30:15.472Z,86.40
2022-08-05T20:35:22.182Z,84.20
2022-08-05T20:40:24.079Z,88.40
2022-08-05T20:45:55.781Z,89.00
2022-08-05T20:50:47.830Z,87.50
2022-08-05T20:55:56.801Z,91.00
2022-08-05T21:01:10.872Z,92.30
2022-08-05T21:06:27.636Z,93.00
2022-08-05T21:12:09.680Z,90.60
2022-08-05T21:16:52.524Z,91.70
2022-08-05T21:21:54.359Z,91.20
2022-08-05T21:26:58.722Z,87.70
2022-08-05T21:32:02.449Z,85.70
2022-08-05T21:37:05.144Z,82.90
2022-08-05T21:42:07.362Z,79.90
2022-08-05T21:47:55.101Z,77.30
2022-08-05T21:52:51.048Z,75.40
2022-08-05T21:57:52.922Z,74.40
2022-08-05T22:02:56.465Z,73.20
2022-08-05T22:08:02.439Z,72.90
2022-08-05T22:13:08.879Z,71.70
2022-08-05T22:18:26.701Z,71.50
2022-08-05T22:24:02.160Z,71.30
2022-08-05T22:29:05.905Z,71.00
2022-08-05T22:34:08.174Z,70.50
2022-08-05T22:39:12.701Z,70.20
2022-08-05T22:44:14.810Z,69.70
2022-08-05T22:50:18.205Z,69.60
2022-08-05T22:54:46.657Z,69.80
2022-08-05T22:59:54.127Z,69.70
2022-08-05T23:04:56.321Z,70.00
2022-08-05T23:10:01.661Z,70.10
2022-08-05T23:15:09.097Z,70.40
2022-08-05T23:20:17.755Z,70.60
2022-08-05T23:25:50.346Z,71.00
2022-08-05T23:30:43.432Z,71.10
2022-08-05T23:35:48.171Z,71.20
2022-08-05T23:40:52.444Z,72.00
2022-08-05T23:45:54.844Z,73.10
2022-08-05T23:50:58.604Z,73.10
2022-08-05T23:56:00.628Z,73.10
